Time;durP1;ratioP1;P1;durP2;ratioP2;P2;SDS_P1;SDS_P2;PMS_P1;PMS_P2;Temp;Humidity;BMP_temperature;BMP_pressure;BME280_temperature;BME280_humidity;BME280_pressure;Samples;Min_cycle;Max_cycle;Signal;HPM_P1;HPM_P2
2023/10/30 00:01:27;;;;;;;8.57;2.72;;;;;;;11.09;60.80;95200.31;5109547;28;20031;-70
2023/10/30 00:03:52;;;;;;;4.00;2.25;;;;;;;11.19;60.54;95200.41;5109212;28;20053;-70
2023/10/30 00:06:17;;;;;;;4.68;2.28;;;;;;;10.94;61.13;95204.94;5108954;28;20129;-70
2023/10/30 00:08:43;;;;;;;4.47;2.42;;;;;;;10.87;61.41;95208.97;5110773;28;20081;-70
2023/10/30 00:11:08;;;;;;;4.60;2.47;;;;;;;10.91;61.56;95205.19;5126239;28;20023;-70
2023/10/30 00:13:34;;;;;;;4.47;2.65;;;;;;;10.90;61.31;95203.53;5108712;28;20032;-70
2023/10/30 00:15:59;;;;;;;6.75;2.65;;;;;;;10.83;61.73;95188.53;5111526;28;20024;-70
2023/10/30 00:18:25;;;;;;;4.18;2.47;;;;;;;10.95;61.48;95204.00;5113695;28;20039;-70
2023/10/30 00:20:50;;;;;;;4.75;2.47;;;;;;;10.80;61.72;95199.16;5099775;28;20016;-70
2023/10/30 00:23:15;;;;;;;4.22;2.30;;;;;;;10.83;61.62;95191.13;5094559;28;20036;-71
2023/10/30 00:25:41;;;;;;;5.57;2.70;;;;;;;10.99;61.23;95201.16;5127306;27;20043;-70
2023/10/30 00:28:06;;;;;;;5.57;2.60;;;;;;;10.82;61.77;95189.50;5092361;28;20043;-71
2023/10/30 00:30:32;;;;;;;6.80;2.67;;;;;;;10.68;62.05;95186.19;5111557;28;20408;-70
2023/10/30 00:32:57;;;;;;;3.72;2.03;;;;;;;10.78;61.75;95188.06;5113321;28;20061;-70
2023/10/30 00:35:23;;;;;;;4.90;2.75;;;;;;;10.74;61.87;95188.28;5130139;27;20054;-70
2023/10/30 00:37:49;;;;;;;5.30;2.70;;;;;;;10.83;61.61;95196.31;5114103;27;20027;-70
2023/10/30 00:40:15;;;;;;;4.07;2.88;;;;;;;10.76;61.58;95195.16;5110295;28;20039;-71
2023/10/30 00:42:40;;;;;;;3.80;2.42;;;;;;;10.53;61.97;95171.78;5094690;28;20047;-70
2023/10/30 00:45:06;;;;;;;4.80;2.78;;;;;;;10.63;61.41;95171.91;5112260;28;20157;-70
2023/10/30 00:47:32;;;;;;;4.82;2.63;;;;;;;10.68;61.65;95173.19;5112278;28;20043;-70
2023/10/30 00:49:57;;;;;;;7.47;2.78;;;;;;;10.55;62.22;95187.25;5112585;28;20028;-70
2023/10/30 00:52:23;;;;;;;3.83;2.38;;;;;;;10.45;62.36;95187.13;5112866;28;20038;-70
2023/10/30 00:54:48;;;;;;;3.97;2.60;;;;;;;10.40;62.70;95189.25;5111916;28;20031;-70
2023/10/30 00:57:13;;;;;;;4.25;2.67;;;;;;;10.30;62.57;95181.31;5128475;27;20484;-70
2023/10/30 00:59:39;;;;;;;5.00;2.60;;;;;;;10.36;62.69;95180.03;5129586;27;20504;-71
2023/10/30 01:02:04;;;;;;;4.90;2.50;;;;;;;10.31;62.94;95189.94;5113464;27;20091;-70
2023/10/30 01:04:30;;;;;;;4.63;2.28;;;;;;;10.29;63.20;95182.28;5111368;28;20080;-70
2023/10/30 01:06:56;;;;;;;4.40;2.83;;;;;;;10.39;62.68;95172.84;5112328;28;20023;-70
2023/10/30 01:09:21;;;;;;;3.60;2.40;;;;;;;10.45;62.63;95195.75;5112169;28;20032;-70
2023/10/30 01:11:47;;;;;;;5.22;2.90;;;;;;;10.62;62.44;95197.06;5112629;28;20028;-70
2023/10/30 01:14:12;;;;;;;4.45;2.10;;;;;;;10.29;63.13;95193.47;5113277;28;20477;-70
2023/10/30 01:16:37;;;;;;;4.68;2.67;;;;;;;10.35;62.82;95188.75;5111419;28;20030;-70
2023/10/30 01:19:03;;;;;;;6.00;2.78;;;;;;;10.40;62.80;95190.06;5095277;28;20031;-70
2023/10/30 01:21:28;;;;;;;5.07;2.45;;;;;;;10.36;63.35;95187.81;5111644;28;20031;-70
2023/10/30 01:23:54;;;;;;;5.03;2.42;;;;;;;10.37;63.10;95192.91;5094894;28;20036;-70
2023/10/30 01:26:19;;;;;;;5.30;2.42;;;;;;;10.32;63.21;95194.19;5113187;28;20027;-70
2023/10/30 01:28:44;;;;;;;4.22;2.38;;;;;;;10.42;62.70;95189.94;5111723;28;20024;-70
2023/10/30 01:31:10;;;;;;;4.70;2.70;;;;;;;10.36;62.70;95193.00;5111877;28;20032;-70
2023/10/30 01:33:35;;;;;;;4.72;2.45;;;;;;;10.37;63.22;95190.31;5094764;28;20039;-71
2023/10/30 01:36:01;;;;;;;4.60;2.78;;;;;;;10.30;62.96;95178.72;5146140;27;20023;-70
2023/10/30 01:38:26;;;;;;;6.93;2.53;;;;;;;10.46;62.47;95183.59;5094969;28;20481;-70
2023/10/30 01:40:52;;;;;;;4.63;2.40;;;;;;;10.32;62.67;95191.59;5111992;28;20027;-70
2023/10/30 01:43:33;;;;;;;4.15;2.42;;;;;;;10.29;63.00;95195.25;5094588;28;20429;-70
2023/10/30 01:45:59;;;;;;;4.18;2.50;;;;;;;9.29;65.29;95187.00;5097233;28;20523;-70
2023/10/30 01:48:28;;;;;;;4.25;2.28;;;;;;;9.26;66.05;95187.22;5111713;27;20043;-70
2023/10/30 01:50:54;;;;;;;3.83;2.35;;;;;;;9.68;64.97;95192.00;5094333;28;20475;-70
2023/10/30 01:53:20;;;;;;;3.83;2.22;;;;;;;9.55;64.94;95176.50;5111446;28;20036;-70
2023/10/30 01:55:45;;;;;;;5.70;2.95;;;;;;;9.38;65.41;95198.47;5111594;28;20023;-70
2023/10/30 01:58:11;;;;;;;3.85;2.47;;;;;;;9.40;65.95;95196.59;5090742;28;20418;-70
2023/10/30 02:00:38;;;;;;;5.90;2.88;;;;;;;9.48;66.06;95190.88;5108034;28;20084;-70
2023/10/30 02:03:03;;;;;;;4.75;2.72;;;;;;;9.37;65.78;95179.50;5086441;28;20496;-70
2023/10/30 02:05:29;;;;;;;7.63;2.47;;;;;;;9.45;65.37;95165.16;5090836;28;20106;-70
2023/10/30 02:07:54;;;;;;;5.25;2.75;;;;;;;9.66;65.07;95192.09;5088435;28;20447;-70
2023/10/30 02:10:19;;;;;;;3.85;2.40;;;;;;;9.54;65.21;95186.03;5090281;28;20034;-70
2023/10/30 02:12:48;;;;;;;4.82;2.58;;;;;;;9.56;65.58;95186.78;5093677;28;20035;-70
2023/10/30 02:15:14;;;;;;;5.55;2.70;;;;;;;9.61;65.20;95183.81;5144576;27;20023;-70
2023/10/30 02:17:39;;;;;;;4.10;2.60;;;;;;;9.54;65.14;95199.00;5145620;27;20074;-70
2023/10/30 02:20:05;;;;;;;3.33;2.22;;;;;;;9.56;65.38;95194.53;5101409;28;20028;-70
2023/10/30 02:22:31;;;;;;;2.97;2.15;;;;;;;9.48;65.84;95196.88;5090889;28;20067;-70
2023/10/30 02:24:56;;;;;;;4.60;2.55;;;;;;;9.62;65.93;95190.69;5090865;28;20062;-70
2023/10/30 02:27:22;;;;;;;5.47;2.70;;;;;;;9.62;65.99;95199.28;5091952;28;20036;-70
2023/10/30 02:29:47;;;;;;;4.20;2.45;;;;;;;9.66;65.97;95199.06;5107981;28;20460;-70
2023/10/30 02:32:13;;;;;;;4.85;2.72;;;;;;;9.44;66.15;95184.22;5111203;28;20057;-70
2023/10/30 02:34:38;;;;;;;4.82;2.50;;;;;;;9.49;65.85;95192.50;5093590;28;20044;-70
2023/10/30 02:37:04;;;;;;;4.63;2.80;;;;;;;9.47;66.28;95200.41;5093741;28;20094;-70
2023/10/30 02:39:32;;;;;;;5.35;3.17;;;;;;;9.62;65.84;95196.69;5109507;28;20027;-70
2023/10/30 02:41:59;;;;;;;5.97;2.75;;;;;;;9.57;65.56;95185.81;5094214;28;20028;-70
2023/10/30 02:44:24;;;;;;;5.05;2.50;;;;;;;9.52;65.68;95193.09;5093267;28;20047;-70
2023/10/30 02:46:50;;;;;;;4.22;2.35;;;;;;;9.47;65.76;95192.63;5110558;28;20027;-70
2023/10/30 02:49:16;;;;;;;4.95;2.58;;;;;;;9.42;65.66;95179.16;5110173;28;20031;-70
2023/10/30 02:51:41;;;;;;;5.70;2.38;;;;;;;9.43;65.91;95187.78;5111390;28;20039;-70
2023/10/30 02:54:06;;;;;;;4.03;2.20;;;;;;;9.41;65.81;95206.00;5111824;28;20527;-70
2023/10/30 02:56:32;;;;;;;4.38;2.70;;;;;;;9.16;65.93;95175.84;5110240;28;20409;-70
2023/10/30 02:58:59;;;;;;;4.85;2.70;;;;;;;9.29;66.22;95197.34;5109671;28;20038;-70
2023/10/30 03:01:25;;;;;;;5.13;2.80;;;;;;;9.29;66.27;95199.94;5110235;28;20493;-70
2023/10/30 03:03:50;;;;;;;5.43;2.40;;;;;;;9.23;66.38;95196.97;5109868;28;20489;-70
2023/10/30 03:06:15;;;;;;;5.25;2.50;;;;;;;9.30;66.19;95204.19;5093082;28;20081;-70
2023/10/30 03:08:41;;;;;;;4.63;2.40;;;;;;;9.11;66.07;95168.41;5110280;28;20031;-70
2023/10/30 03:11:07;;;;;;;3.55;2.47;;;;;;;9.33;66.14;95201.41;5111150;28;20077;-70
2023/10/30 03:13:32;;;;;;;5.13;2.72;;;;;;;9.17;66.61;95193.06;5111040;28;20035;-70
2023/10/30 03:15:59;;;;;;;5.85;2.70;;;;;;;9.13;66.96;95191.59;5072622;28;20038;-70
2023/10/30 03:18:24;;;;;;;4.28;2.75;;;;;;;9.06;66.97;95200.78;5099539;28;20061;-70
2023/10/30 03:20:49;;;;;;;4.88;2.42;;;;;;;8.96;67.33;95185.03;5126851;27;20074;-70
2023/10/30 03:23:15;;;;;;;5.35;2.40;;;;;;;9.17;66.63;95203.44;5092982;28;20054;-70
2023/10/30 03:25:40;;;;;;;3.20;2.28;;;;;;;9.13;67.13;95213.16;5109714;28;20110;-70
2023/10/30 03:28:06;;;;;;;6.90;2.83;;;;;;;9.17;67.12;95211.22;5089054;28;20039;-70
2023/10/30 03:30:34;;;;;;;4.88;2.25;;;;;;;8.93;66.67;95173.13;5110492;28;20073;-70
2023/10/30 03:33:00;;;;;;;4.40;2.30;;;;;;;9.23;66.91;95221.13;5092886;28;20045;-70
2023/10/30 03:35:25;;;;;;;4.40;2.40;;;;;;;9.32;66.21;95219.66;5110536;28;20024;-70
2023/10/30 03:37:50;;;;;;;5.47;2.70;;;;;;;9.24;66.29;95222.78;5109354;28;20020;-70
2023/10/30 03:40:16;;;;;;;5.75;2.80;;;;;;;9.10;66.77;95203.00;5108744;28;20099;-70
2023/10/30 03:42:41;;;;;;;4.53;2.38;;;;;;;9.12;66.55;95221.88;5089238;28;20055;-70
2023/10/30 03:45:07;;;;;;;6.28;2.50;;;;;;;9.09;66.67;95213.50;5111222;28;20023;-70
2023/10/30 03:47:33;;;;;;;4.57;2.50;;;;;;;9.08;66.66;95215.28;5110917;28;20039;-70
2023/10/30 03:49:58;;;;;;;4.82;2.42;;;;;;;9.14;66.63;95220.03;5091247;28;20099;-70
2023/10/30 03:52:23;;;;;;;3.25;2.35;;;;;;;9.12;66.54;95221.06;5103558;28;20032;-70
2023/10/30 03:54:49;;;;;;;4.93;2.78;;;;;;;9.18;66.21;95218.03;5093729;28;20028;-70
2023/10/30 03:57:14;;;;;;;5.40;2.42;;;;;;;8.99;66.87;95217.69;5113215;28;20039;-70
2023/10/30 03:59:40;;;;;;;6.97;2.83;;;;;;;9.11;66.58;95220.25;5115057;27;20031;-70
2023/10/30 04:02:05;;;;;;;7.82;2.95;;;;;;;8.95;67.02;95215.31;5113748;28;20027;-70
2023/10/30 04:04:31;;;;;;;4.28;2.58;;;;;;;9.09;66.91;95216.09;5114620;28;20036;-70
2023/10/30 04:06:56;;;;;;;4.28;2.30;;;;;;;9.05;67.25;95212.06;5113453;28;20081;-70
2023/10/30 04:09:22;;;;;;;3.60;2.17;;;;;;;8.98;67.21;95203.91;5113112;28;20061;-70
2023/10/30 04:11:47;;;;;;;5.78;3.13;;;;;;;8.92;67.32;95205.16;5113855;28;20024;-70
2023/10/30 04:14:13;;;;;;;4.53;2.35;;;;;;;9.05;67.06;95201.69;5095536;28;20495;-70
2023/10/30 04:16:39;;;;;;;4.90;2.88;;;;;;;9.11;66.85;95209.03;5113498;28;20036;-70
2023/10/30 04:19:04;;;;;;;4.80;2.38;;;;;;;9.07;67.27;95217.97;5130810;27;20062;-70
2023/10/30 04:21:30;;;;;;;4.95;2.40;;;;;;;9.00;67.12;95208.94;5111848;27;20027;-70
2023/10/30 04:23:55;;;;;;;3.90;2.38;;;;;;;9.04;66.92;95208.63;5110237;28;20425;-70
2023/10/30 04:26:21;;;;;;;3.92;2.50;;;;;;;9.11;66.83;95209.03;5093400;28;20024;-70
2023/10/30 04:28:46;;;;;;;4.72;2.55;;;;;;;9.21;66.64;95215.22;5095923;28;20027;-70
2023/10/30 04:31:12;;;;;;;7.22;4.15;;;;;;;9.08;66.34;95209.25;5113158;28;20036;-70
2023/10/30 04:33:37;;;;;;;7.90;3.85;;;;;;;9.06;66.08;95200.78;5113102;28;20047;-70
2023/10/30 04:36:03;;;;;;;9.10;3.97;;;;;;;8.55;67.71;95219.81;5112889;28;20511;-70
2023/10/30 04:38:32;;;;;;;9.15;4.22;;;;;;;8.88;66.68;95214.06;5114218;28;20491;-70
2023/10/30 04:40:58;;;;;;;6.18;4.15;;;;;;;8.77;66.63;95216.56;5112915;28;20046;-70
2023/10/30 04:43:23;;;;;;;10.50;4.25;;;;;;;8.66;67.11;95208.72;5095760;28;20556;-70
2023/10/30 04:45:49;;;;;;;7.85;3.83;;;;;;;8.52;67.70;95201.06;5111707;28;20036;-70
2023/10/30 04:48:14;;;;;;;8.20;4.60;;;;;;;8.45;67.84;95200.66;5112943;28;20031;-70
2023/10/30 04:50:39;;;;;;;7.15;2.58;;;;;;;8.55;68.82;95206.03;5112273;28;20035;-70
2023/10/30 04:53:05;;;;;;;4.20;2.63;;;;;;;8.58;69.21;95217.03;5095726;28;20409;-70
2023/10/30 04:55:30;;;;;;;4.35;2.30;;;;;;;8.65;69.06;95194.13;5113658;28;20024;-70
2023/10/30 04:57:55;;;;;;;4.65;2.47;;;;;;;8.76;68.89;95217.50;5114037;28;20035;-71
2023/10/30 05:00:21;;;;;;;6.78;2.33;;;;;;;8.80;69.08;95215.53;5112372;28;20027;-70
2023/10/30 05:02:47;;;;;;;4.60;2.22;;;;;;;8.72;69.36;95206.56;5094709;28;20035;-70
2023/10/30 05:05:13;;;;;;;4.55;2.33;;;;;;;8.85;69.05;95219.47;5112219;28;20031;-70
2023/10/30 05:07:39;;;;;;;5.75;2.15;;;;;;;8.94;68.94;95203.28;5113162;28;20034;-70
2023/10/30 05:10:04;;;;;;;5.25;2.50;;;;;;;8.87;68.69;95203.81;5112401;28;20024;-70
2023/10/30 05:12:30;;;;;;;4.15;2.17;;;;;;;9.07;68.04;95223.16;5112029;28;20063;-70
2023/10/30 05:14:55;;;;;;;5.28;3.22;;;;;;;9.01;68.61;95232.19;5112176;28;20046;-70
2023/10/30 05:17:20;;;;;;;5.68;3.13;;;;;;;8.99;68.05;95225.44;5111630;28;20054;-70
2023/10/30 05:19:46;;;;;;;12.15;5.05;;;;;;;8.95;68.06;95225.66;5094278;28;20027;-70
2023/10/30 05:22:12;;;;;;;5.40;3.22;;;;;;;8.78;68.57;95248.50;5128678;27;20027;-70
2023/10/30 05:24:37;;;;;;;6.80;3.35;;;;;;;8.70;69.41;95244.66;5112430;28;20428;-70
2023/10/30 05:27:03;;;;;;;4.53;2.42;;;;;;;8.93;69.05;95250.84;5094378;28;20019;-70
2023/10/30 05:29:28;;;;;;;5.50;3.03;;;;;;;8.85;68.80;95260.09;5113459;28;20041;-70
2023/10/30 05:31:53;;;;;;;6.50;3.20;;;;;;;8.71;69.03;95253.25;5110711;28;20045;-71
2023/10/30 05:34:19;;;;;;;7.28;2.67;;;;;;;8.99;68.46;95254.78;5108969;28;20413;-70
2023/10/30 05:36:44;;;;;;;6.40;2.47;;;;;;;8.89;68.41;95244.25;5108688;28;20477;-70
2023/10/30 05:39:10;;;;;;;5.43;3.33;;;;;;;8.89;68.36;95254.59;5103978;28;20043;-70
2023/10/30 05:41:35;;;;;;;5.05;2.60;;;;;;;8.93;68.22;95268.16;5109384;27;20027;-70
2023/10/30 05:44:01;;;;;;;5.20;3.10;;;;;;;8.85;68.94;95255.72;5107041;28;20474;-70
2023/10/30 05:46:26;;;;;;;3.65;2.40;;;;;;;8.93;68.19;95273.34;5108600;27;20507;-70
2023/10/30 05:48:52;;;;;;;5.90;2.38;;;;;;;8.95;68.20;95276.66;5107755;28;20023;-70
2023/10/30 05:51:17;;;;;;;7.38;3.05;;;;;;;8.79;68.30;95273.47;5089657;28;20038;-71
2023/10/30 05:53:43;;;;;;;6.25;3.00;;;;;;;8.78;68.16;95279.59;5109457;28;20408;-70
2023/10/30 05:56:08;;;;;;;8.55;2.50;;;;;;;8.86;68.78;95275.53;5107829;28;20028;-70
2023/10/30 05:58:34;;;;;;;4.57;2.55;;;;;;;8.76;68.52;95255.56;5109105;28;20039;-70
2023/10/30 06:00:59;;;;;;;5.22;3.25;;;;;;;8.81;68.92;95259.47;5088392;27;20060;-70
2023/10/30 06:03:24;;;;;;;3.38;2.35;;;;;;;8.77;69.07;95267.56;5091207;27;20458;-70
2023/10/30 06:05:50;;;;;;;5.10;2.58;;;;;;;9.01;68.53;95281.41;5093928;28;20028;-70
2023/10/30 06:08:15;;;;;;;5.65;2.50;;;;;;;8.99;68.42;95269.50;5108456;28;20035;-71
2023/10/30 06:10:41;;;;;;;5.63;2.35;;;;;;;8.93;68.50;95284.53;5104340;28;20050;-71
2023/10/30 06:13:09;;;;;;;6.72;2.80;;;;;;;8.90;68.72;95270.97;5106562;28;20036;-71
2023/10/30 06:15:35;;;;;;;4.70;2.50;;;;;;;9.01;68.37;95281.41;5073857;28;20031;-71
2023/10/30 06:18:03;;;;;;;6.60;2.88;;;;;;;8.91;68.96;95289.00;5090865;28;20032;-71
2023/10/30 06:20:28;;;;;;;5.40;2.60;;;;;;;8.94;68.70;95304.34;5105370;27;20030;-71
2023/10/30 06:22:54;;;;;;;4.93;2.25;;;;;;;8.92;68.84;95297.59;5106965;27;20446;-71
2023/10/30 06:25:19;;;;;;;4.47;2.08;;;;;;;8.90;68.93;95297.69;5108169;28;20032;-71
2023/10/30 06:27:44;;;;;;;7.55;2.90;;;;;;;8.91;69.13;95301.97;5090083;28;20065;-71
2023/10/30 06:30:12;;;;;;;5.75;2.97;;;;;;;9.06;68.42;95291.47;5106893;28;20030;-71
2023/10/30 06:32:38;;;;;;;3.88;1.90;;;;;;;9.21;68.19;95302.53;5086433;28;20043;-71
2023/10/30 06:35:03;;;;;;;4.20;2.08;;;;;;;9.24;68.18;95297.13;5108256;28;20039;-71
2023/10/30 06:37:29;;;;;;;4.10;2.28;;;;;;;9.42;67.92;95300.19;5106727;28;20078;-71
2023/10/30 06:39:54;;;;;;;3.72;2.33;;;;;;;9.34;67.81;95288.59;5108275;27;20067;-71
2023/10/30 06:42:20;;;;;;;6.00;2.83;;;;;;;9.43;67.53;95278.53;5107663;28;20039;-71
2023/10/30 06:44:45;;;;;;;5.78;2.80;;;;;;;9.99;66.10;95289.19;5106954;28;20031;-71
2023/10/30 06:47:11;;;;;;;3.47;2.45;;;;;;;10.34;65.29;95298.78;5106855;28;20039;-71
2023/10/30 06:49:36;;;;;;;6.03;2.85;;;;;;;10.68;64.83;95297.09;5105422;27;20031;-71
2023/10/30 06:52:01;;;;;;;3.75;2.65;;;;;;;10.49;65.45;95287.25;5106528;28;20016;-71
2023/10/30 06:54:27;;;;;;;4.45;2.40;;;;;;;10.48;64.78;95278.63;5105557;28;20031;-69
2023/10/30 06:56:53;;;;;;;4.20;2.33;;;;;;;11.05;63.56;95286.47;5106582;28;20020;-68
2023/10/30 06:59:18;;;;;;;3.92;2.20;;;;;;;11.29;61.91;95286.34;5105873;28;20031;-70
2023/10/30 07:01:45;;;;;;;3.30;2.08;;;;;;;11.70;60.35;95283.09;5101436;28;20043;-71
2023/10/30 07:04:11;;;;;;;5.53;2.38;;;;;;;11.77;60.07;95270.41;5105589;28;20039;-69
2023/10/30 07:06:37;;;;;;;3.22;2.35;;;;;;;12.45;57.87;95286.56;5109851;28;20023;-74
2023/10/30 07:09:06;;;;;;;3.13;2.03;;;;;;;13.24;55.67;95259.97;5105543;28;20055;-71
2023/10/30 07:11:32;;;;;;;5.82;2.50;;;;;;;14.37;52.55;95273.44;5105550;28;20031;-72
2023/10/30 07:13:58;;;;;;;4.95;2.45;;;;;;;14.43;52.36;95261.59;5107046;28;20039;-72
2023/10/30 07:16:24;;;;;;;3.53;2.03;;;;;;;14.72;51.47;95270.25;5088667;28;20485;-72
2023/10/30 07:18:50;;;;;;;8.10;2.58;;;;;;;15.51;50.21;95278.63;5106126;28;20519;-72
2023/10/30 07:21:15;;;;;;;4.50;2.10;;;;;;;16.95;46.93;95264.56;5107074;28;20031;-72
2023/10/30 07:23:41;;;;;;;6.20;2.28;;;;;;;18.37;44.36;95264.72;5106861;28;20054;-72
2023/10/30 07:26:06;;;;;;;5.57;2.60;;;;;;;19.28;41.78;95265.41;5109123;28;20092;-72
2023/10/30 07:28:32;;;;;;;6.32;2.72;;;;;;;19.30;41.41;95264.25;5091177;28;20039;-72
2023/10/30 07:30:57;;;;;;;4.10;2.30;;;;;;;20.49;39.16;95259.66;5108319;28;20031;-72
2023/10/30 07:33:23;;;;;;;4.80;2.42;;;;;;;20.53;38.67;95268.88;5106947;28;20027;-73
2023/10/30 07:35:54;;;;;;;7.03;2.92;;;;;;;21.03;38.13;95264.81;5108913;28;20406;-72
2023/10/30 07:38:20;;;;;;;6.70;2.95;;;;;;;21.45;36.95;95273.97;5110237;28;20027;-72
2023/10/30 07:40:45;;;;;;;7.95;3.30;;;;;;;20.96;38.06;95267.34;5110055;28;20489;-72
2023/10/30 07:43:10;;;;;;;8.02;2.83;;;;;;;20.54;38.69;95273.19;5092822;28;20059;-72
2023/10/30 07:45:41;;;;;;;3.92;2.40;;;;;;;21.83;36.56;95269.34;5109949;28;20077;-72
2023/10/30 07:48:06;;;;;;;4.38;2.47;;;;;;;21.49;37.16;95266.50;5109982;28;20412;-72
2023/10/30 07:50:32;;;;;;;9.63;4.22;;;;;;;20.29;39.07;95259.34;5093055;28;20024;-74
2023/10/30 07:52:58;;;;;;;10.05;4.70;;;;;;;20.59;38.54;95265.56;5076200;28;20111;-73
2023/10/30 07:55:24;;;;;;;8.05;4.07;;;;;;;19.71;40.32;95265.94;5092967;28;20039;-73
2023/10/30 07:57:49;;;;;;;8.30;4.70;;;;;;;18.69;42.45;95260.41;5111259;28;20054;-73
2023/10/30 08:00:15;;;;;;;7.63;3.80;;;;;;;18.71;42.82;95264.53;5126900;28;20553;-73
2023/10/30 08:02:40;;;;;;;6.78;3.05;;;;;;;17.66;45.04;95268.63;5093006;28;20051;-73
2023/10/30 08:05:06;;;;;;;5.90;3.30;;;;;;;17.36;45.65;95273.47;5109786;28;20040;-73
2023/10/30 08:07:32;;;;;;;6.18;2.80;;;;;;;17.14;46.37;95274.84;5092956;28;20031;-73
2023/10/30 08:09:57;;;;;;;7.72;3.20;;;;;;;16.68;47.35;95263.69;5092900;28;20425;-73
2023/10/30 08:12:23;;;;;;;6.78;2.95;;;;;;;17.12;46.77;95263.66;5109728;28;20409;-73
2023/10/30 08:14:49;;;;;;;8.32;2.97;;;;;;;16.54;47.32;95257.19;5092797;28;20032;-74
2023/10/30 08:17:14;;;;;;;6.10;2.97;;;;;;;16.35;47.60;95262.63;5109632;28;20038;-73
2023/10/30 08:19:39;;;;;;;5.80;2.70;;;;;;;16.68;47.16;95262.88;5109756;28;20039;-73
2023/10/30 08:22:05;;;;;;;9.32;3.90;;;;;;;16.80;46.71;95251.19;5092745;28;20510;-73
2023/10/30 08:24:30;;;;;;;4.25;2.50;;;;;;;16.96;46.24;95246.03;5092654;28;20032;-73
2023/10/30 08:26:56;;;;;;;7.88;2.75;;;;;;;17.15;45.88;95254.66;5092718;28;20020;-73
2023/10/30 08:29:21;;;;;;;4.80;2.83;;;;;;;16.95;45.79;95218.16;5109504;28;20035;-73
2023/10/30 08:31:47;;;;;;;4.47;2.50;;;;;;;17.30;45.26;95247.84;5109682;28;20032;-73
2023/10/30 08:34:12;;;;;;;7.15;3.22;;;;;;;17.29;45.76;95243.56;5092643;28;20031;-73
2023/10/30 08:36:38;;;;;;;6.28;2.60;;;;;;;17.36;45.53;95236.72;5093899;28;20097;-73
2023/10/30 08:39:03;;;;;;;5.97;2.40;;;;;;;17.18;46.21;95238.59;5096434;28;20504;-73
2023/10/30 08:41:29;;;;;;;9.15;2.90;;;;;;;17.45;46.13;95255.13;5114530;28;20035;-74
2023/10/30 08:43:54;;;;;;;4.82;2.63;;;;;;;17.71;44.52;95255.84;5096144;28;20047;-73
2023/10/30 08:46:19;;;;;;;5.82;2.80;;;;;;;17.54;45.20;95244.47;5114454;27;20039;-73
2023/10/30 08:48:46;;;;;;;5.30;2.38;;;;;;;17.64;45.81;95245.19;5079059;28;20032;-73
2023/10/30 08:51:11;;;;;;;4.65;2.70;;;;;;;17.38;45.55;95234.75;5079529;28;20032;-73
2023/10/30 08:53:37;;;;;;;4.18;2.75;;;;;;;17.09;46.68;95250.03;5113092;28;20035;-73
2023/10/30 08:56:04;;;;;;;5.78;2.78;;;;;;;17.16;46.20;95241.41;5079124;28;20024;-74
2023/10/30 08:58:29;;;;;;;7.10;2.72;;;;;;;17.45;45.89;95239.38;5113015;28;20098;-73
2023/10/30 09:00:54;;;;;;;8.80;3.50;;;;;;;16.85;47.31;95235.78;5114211;28;20039;-73
2023/10/30 09:03:20;;;;;;;7.72;3.40;;;;;;;16.98;47.24;95244.06;5095837;28;20409;-73
2023/10/30 09:05:45;;;;;;;5.75;3.22;;;;;;;16.96;47.13;95230.28;5095805;28;20036;-73
2023/10/30 09:08:11;;;;;;;6.53;3.47;;;;;;;17.01;47.28;95242.13;5095796;28;20034;-73
2023/10/30 09:10:36;;;;;;;6.53;3.30;;;;;;;16.97;47.91;95236.38;5095703;28;20069;-73
2023/10/30 09:13:02;;;;;;;8.27;3.25;;;;;;;17.09;47.97;95236.91;5112604;28;20016;-73
2023/10/30 09:15:27;;;;;;;6.38;3.20;;;;;;;17.36;47.71;95228.84;5095650;28;20042;-73
2023/10/30 09:17:53;;;;;;;6.35;2.80;;;;;;;17.42;47.50;95225.56;5112509;28;20470;-73
2023/10/30 09:20:19;;;;;;;6.07;2.90;;;;;;;17.34;48.27;95217.66;5095566;28;20035;-73
2023/10/30 09:22:44;;;;;;;8.50;3.10;;;;;;;17.25;48.54;95210.75;5078647;28;20088;-74
2023/10/30 09:25:09;;;;;;;5.03;3.60;;;;;;;17.49;48.47;95219.69;5095479;28;20057;-73
2023/10/30 09:27:35;;;;;;;6.45;2.60;;;;;;;17.20;48.64;95216.47;5078400;28;20023;-74
2023/10/30 09:30:01;;;;;;;8.68;3.00;;;;;;;17.45;48.47;95213.13;5095343;28;20032;-73
2023/10/30 09:32:26;;;;;;;4.35;2.40;;;;;;;17.50;48.38;95202.97;5112199;28;20518;-73
2023/10/30 09:34:52;;;;;;;6.00;3.15;;;;;;;17.40;48.40;95206.53;5113454;28;20032;-73
2023/10/30 09:37:17;;;;;;;3.95;2.38;;;;;;;17.53;47.71;95192.13;5095140;28;20019;-73
2023/10/30 09:39:43;;;;;;;6.30;2.60;;;;;;;17.78;47.62;95196.47;5095248;28;20085;-74
2023/10/30 09:42:08;;;;;;;5.97;3.03;;;;;;;17.75;47.53;95188.06;5112394;28;20030;-73
2023/10/30 09:44:34;;;;;;;4.32;2.58;;;;;;;17.80;46.88;95180.53;5113340;28;20040;-73
2023/10/30 09:47:00;;;;;;;4.28;2.20;;;;;;;17.82;46.80;95189.06;5094859;28;20044;-73
2023/10/30 09:49:28;;;;;;;4.15;2.20;;;;;;;18.08;46.10;95178.44;5111934;28;20129;-73
2023/10/30 09:51:53;;;;;;;5.75;2.22;;;;;;;18.32;45.08;95180.22;5078568;28;20399;-73
2023/10/30 09:54:19;;;;;;;6.70;2.05;;;;;;;18.17;44.27;95156.41;5094774;28;20028;-73
2023/10/30 09:56:44;;;;;;;5.28;2.50;;;;;;;18.33;45.06;95170.53;5111904;28;20028;-73
2023/10/30 09:59:10;;;;;;;4.55;2.30;;;;;;;18.37;45.30;95159.50;5113435;28;20476;-73
2023/10/30 10:01:36;;;;;;;8.85;2.28;;;;;;;18.21;46.04;95149.00;5111749;28;20050;-73
2023/10/30 10:04:01;;;;;;;7.63;2.95;;;;;;;18.41;45.82;95152.09;5094546;28;20028;-73
2023/10/30 10:06:26;;;;;;;5.07;2.58;;;;;;;18.59;45.53;95144.03;5094729;28;20420;-73
2023/10/30 10:08:52;;;;;;;6.03;2.53;;;;;;;18.82;44.59;95149.41;5111615;28;20122;-73
2023/10/30 10:11:24;;;;;;;6.97;2.72;;;;;;;18.64;44.62;95146.97;5094714;28;20080;-73
2023/10/30 10:13:49;;;;;;;5.00;2.78;;;;;;;18.80;44.41;95139.03;5113102;28;20035;-73
2023/10/30 10:16:15;;;;;;;8.82;2.60;;;;;;;19.03;43.76;95139.13;5094402;28;20027;-73
2023/10/30 10:18:40;;;;;;;5.03;2.05;;;;;;;18.78;44.63;95134.94;5094413;28;20123;-73
2023/10/30 10:21:11;;;;;;;4.50;2.50;;;;;;;19.00;44.50;95128.94;5094466;28;20034;-73
2023/10/30 10:23:37;;;;;;;;;;;;;;;18.88;44.74;95130.31;5095635;28;20081;-73
2023/10/30 10:26:04;;;;;;;4.35;2.50;;;;;;;18.78;44.13;95124.41;5111217;28;20305;-73
2023/10/30 10:28:30;;;;;;;4.97;2.30;;;;;;;19.04;43.40;95111.81;5128538;27;20062;-73
2023/10/30 10:30:55;;;;;;;4.78;2.40;;;;;;;19.13;43.91;95115.22;5077368;28;20031;-73
2023/10/30 10:33:27;;;;;;;5.28;2.70;;;;;;;19.05;43.75;95107.34;5111074;28;20027;-73
2023/10/30 10:36:03;;;;;;;10.35;2.70;;;;;;;19.17;43.10;95104.19;5094785;28;20059;-73
2023/10/30 10:38:29;;;;;;;5.32;2.53;;;;;;;19.30;42.77;95098.34;5094787;28;20038;-73
2023/10/30 10:40:57;;;;;;;5.75;2.58;;;;;;;19.35;43.01;95111.00;5094084;28;20031;-73
2023/10/30 10:43:24;;;;;;;6.75;2.65;;;;;;;19.40;43.05;95106.84;5110773;28;20075;-73
2023/10/30 10:45:50;;;;;;;5.53;2.13;;;;;;;19.35;43.08;95097.81;5094043;28;20420;-73
2023/10/30 10:48:16;;;;;;;5.80;2.50;;;;;;;19.28;43.32;95087.19;5077047;28;20046;-73
2023/10/30 10:50:42;;;;;;;4.15;2.42;;;;;;;19.26;43.20;95088.34;5110805;28;20505;-73
2023/10/30 10:53:08;;;;;;;5.60;2.80;;;;;;;19.50;42.64;95096.09;5093818;28;20104;-73
2023/10/30 10:55:40;;;;;;;4.68;2.35;;;;;;;19.42;43.21;95089.06;5093741;28;20031;-73
2023/10/30 10:58:09;;;;;;;8.38;2.67;;;;;;;19.38;42.54;95060.59;5094380;28;20099;-73
2023/10/30 11:00:41;;;;;;;5.65;2.70;;;;;;;19.71;42.46;95092.81;5093244;28;20032;-73
2023/10/30 11:03:06;;;;;;;4.50;2.42;;;;;;;19.82;42.22;95084.50;5077304;28;20118;-73
2023/10/30 11:05:35;;;;;;;6.35;2.45;;;;;;;19.93;40.83;95070.09;5093492;28;20548;-73
2023/10/30 11:08:38;;;;;;;5.10;2.40;;;;;;;20.13;40.39;95078.31;5110446;28;20374;-73
2023/10/30 11:11:22;;;;;;;4.57;2.53;;;;;;;20.05;41.48;95068.63;5110745;28;20425;-73
2023/10/30 11:13:57;;;;;;;7.03;2.60;;;;;;;20.08;41.73;95081.47;5111922;28;20019;-73
2023/10/30 11:16:26;;;;;;;5.28;2.47;;;;;;;20.15;41.28;95067.59;5110359;28;20080;-73
2023/10/30 11:18:52;;;;;;;10.48;2.97;;;;;;;20.08;41.62;95068.28;5110443;28;20048;-73
2023/10/30 11:21:17;;;;;;;7.78;2.50;;;;;;;20.19;40.38;95068.84;5110121;28;20031;-73
2023/10/30 11:23:48;;;;;;;4.95;2.20;;;;;;;20.22;40.32;95056.13;5093383;28;20447;-73
2023/10/30 11:26:43;;;;;;;5.13;2.20;;;;;;;20.37;39.93;95048.22;5093418;28;20042;-73
2023/10/30 11:29:10;;;;;;;5.53;2.58;;;;;;;20.38;40.35;95047.22;5111859;28;20045;-73
2023/10/30 11:32:04;;;;;;;10.05;2.45;;;;;;;20.57;39.22;95026.59;5110170;28;20031;-73